Time;durP1;ratioP1;P1;durP2;ratioP2;P2;SDS_P1;SDS_P2;PMS_P1;PMS_P2;Temp;Humidity;BMP_temperature;BMP_pressure;BME280_temperature;BME280_humidity;BME280_pressure;Samples;Min_cycle;Max_cycle;Signal;HPM_P1;HPM_P2
2022/05/30 00:00:20;;;;;;;2.63;1.42;;;14.30;77.80;;;;;;10542576;28;20028;-58
2022/05/30 00:05:23;;;;;;;5.15;1.20;;;14.40;77.80;;;;;;10542215;28;20139;-58
2022/05/30 00:10:24;;;;;;;4.45;0.88;;;14.30;77.80;;;;;;10542261;28;20032;-61
2022/05/30 00:15:25;;;;;;;2.83;0.88;;;14.30;77.80;;;;;;10541778;28;20044;-66
2022/05/30 00:20:26;;;;;;;3.13;1.30;;;14.30;77.80;;;;;;10542195;28;20121;-65
2022/05/30 00:25:27;;;;;;;1.05;0.70;;;14.30;77.80;;;;;;10541516;28;20048;-61
2022/05/30 00:30:27;;;;;;;2.13;1.20;;;14.30;77.80;;;;;;10541132;28;20115;-66
2022/05/30 00:35:30;;;;;;;3.75;1.17;;;14.30;77.80;;;;;;10540982;28;20056;-64
2022/05/30 00:40:31;;;;;;;2.47;1.00;;;14.20;77.80;;;;;;10540930;28;20453;-64
2022/05/30 00:45:31;;;;;;;3.10;0.93;;;14.20;77.80;;;;;;10540624;28;20100;-65
2022/05/30 00:50:32;;;;;;;3.22;0.80;;;14.20;77.80;;;;;;10540581;28;20123;-59
2022/05/30 00:55:34;;;;;;;4.80;1.17;;;14.20;77.80;;;;;;10540566;28;20450;-58
2022/05/30 01:00:35;;;;;;;4.93;1.00;;;14.20;77.80;;;;;;10540015;28;20069;-59
2022/05/30 01:10:55;;;;;;;1.88;1.00;;;14.10;77.80;;;;;;10539805;28;20519;-62
2022/05/30 01:15:56;;;;;;;1.75;0.82;;;14.10;77.80;;;;;;10539468;28;20042;-58
2022/05/30 01:21:25;;;;;;;3.70;0.82;;;14.10;77.90;;;;;;10539592;28;20024;-64
2022/05/30 01:26:42;;;;;;;5.65;0.95;;;14.10;78.40;;;;;;10539022;28;20046;-66
2022/05/30 01:31:43;;;;;;;3.53;1.23;;;14.10;77.90;;;;;;10539116;28;20074;-62
2022/05/30 01:36:44;;;;;;;4.57;1.70;;;14.00;77.90;;;;;;10538264;28;20113;-58
2022/05/30 01:41:45;;;;;;;2.95;1.13;;;14.00;77.90;;;;;;10537963;28;20129;-66
2022/05/30 01:46:46;;;;;;;2.10;0.80;;;14.00;77.90;;;;;;10538199;28;20032;-59
2022/05/30 01:51:47;;;;;;;2.42;0.63;;;14.00;78.00;;;;;;10538355;28;20480;-62
2022/05/30 01:56:48;;;;;;;2.22;0.82;;;14.00;78.00;;;;;;10537950;28;20040;-59
2022/05/30 02:01:49;;;;;;;1.65;0.70;;;14.00;78.60;;;;;;10537617;28;20093;-61
2022/05/30 02:06:50;;;;;;;1.58;0.80;;;14.00;78.00;;;;;;10537299;28;20415;-60
2022/05/30 02:11:51;;;;;;;2.83;1.00;;;14.00;78.00;;;;;;10537467;28;20041;-60
2022/05/30 02:17:01;;;;;;;2.92;0.75;;;13.90;77.90;;;;;;10537149;28;20028;-62
2022/05/30 02:22:03;;;;;;;2.05;0.70;;;13.90;77.90;;;;;;10537382;28;20044;-65
2022/05/30 02:27:04;;;;;;;2.80;0.88;;;13.90;77.90;;;;;;10536974;28;20031;-59
2022/05/30 02:32:05;;;;;;;4.45;0.80;;;13.90;77.90;;;;;;10536757;28;20551;-62
2022/05/30 02:37:06;;;;;;;1.90;0.90;;;13.80;77.90;;;;;;10536574;28;20099;-60
2022/05/30 02:42:07;;;;;;;1.42;0.60;;;13.80;77.90;;;;;;10536751;28;20059;-62
2022/05/30 02:47:08;;;;;;;2.45;0.85;;;13.80;77.90;;;;;;10536614;28;20064;-58
2022/05/30 02:52:09;;;;;;;3.03;0.82;;;13.80;78.60;;;;;;10535316;28;20381;-61
2022/05/30 02:57:10;;;;;;;3.03;0.80;;;13.80;78.00;;;;;;10536513;28;20078;-64
2022/05/30 03:02:11;;;;;;;2.70;1.38;;;13.70;78.00;;;;;;10535949;28;20076;-58
2022/05/30 03:07:12;;;;;;;1.48;0.80;;;13.70;77.90;;;;;;10535978;28;20055;-64
2022/05/30 03:12:13;;;;;;;1.42;0.80;;;13.70;78.60;;;;;;10535821;28;20040;-65
2022/05/30 03:17:14;;;;;;;2.58;0.75;;;13.70;77.90;;;;;;10535780;28;20028;-59
2022/05/30 03:22:14;;;;;;;1.42;0.70;;;13.70;78.00;;;;;;10535668;28;20048;-65
2022/05/30 03:27:15;;;;;;;1.10;0.70;;;13.60;77.90;;;;;;10535479;28;20372;-58
2022/05/30 03:32:16;;;;;;;2.97;0.88;;;13.60;77.90;;;;;;10535569;28;20127;-57
2022/05/30 03:37:16;;;;;;;1.73;0.70;;;13.60;77.90;;;;;;10535082;28;20046;-64
2022/05/30 03:42:17;;;;;;;1.55;0.95;;;13.60;77.90;;;;;;10535592;28;20044;-59
2022/05/30 03:47:18;;;;;;;2.13;0.85;;;13.50;77.80;;;;;;10535231;28;20441;-63
2022/05/30 03:52:18;;;;;;;1.23;0.88;;;13.50;77.80;;;;;;10535251;28;20064;-59
2022/05/30 03:57:19;;;;;;;2.53;1.05;;;13.50;77.80;;;;;;10535464;28;20040;-62
2022/05/30 04:02:21;;;;;;;3.50;0.75;;;13.50;77.80;;;;;;10535250;28;20076;-63
2022/05/30 04:07:22;;;;;;;1.45;0.85;;;13.50;77.80;;;;;;10542361;28;20045;-58
2022/05/30 04:12:23;;;;;;;1.38;0.70;;;13.50;77.80;;;;;;10542314;28;20043;-65
2022/05/30 04:17:24;;;;;;;3.67;0.80;;;13.50;77.80;;;;;;10542150;28;20619;-65
2022/05/30 04:22:25;;;;;;;1.13;0.73;;;13.40;77.70;;;;;;10541697;28;20400;-58
2022/05/30 04:27:26;;;;;;;1.73;0.80;;;13.40;77.80;;;;;;10541952;28;20128;-58
2022/05/30 04:32:27;;;;;;;2.03;0.80;;;13.40;77.70;;;;;;10541819;28;20048;-60
2022/05/30 04:37:28;;;;;;;1.27;0.68;;;13.40;77.70;;;;;;10541038;28;20048;-59
2022/05/30 04:42:29;;;;;;;1.35;0.60;;;13.40;77.70;;;;;;10540891;28;20048;-58
2022/05/30 04:47:34;;;;;;;17.17;1.02;;;13.40;77.60;;;;;;10540617;28;20037;-63
2022/05/30 04:52:35;;;;;;;0.90;0.60;;;13.40;77.60;;;;;;10540483;28;20032;-58
2022/05/30 04:57:48;;;;;;;0.77;0.50;;;13.40;77.50;;;;;;10540396;28;20127;-65
2022/05/30 05:02:52;;;;;;;0.95;0.70;;;13.50;77.60;;;;;;10539973;28;20043;-58
2022/05/30 05:08:14;;;;;;;2.80;0.70;;;13.50;77.60;;;;;;10539943;28;20052;-59
2022/05/30 05:13:15;;;;;;;0.95;0.60;;;13.50;77.60;;;;;;10539667;28;20062;-63
2022/05/30 05:18:15;;;;;;;2.58;0.90;;;13.50;77.60;;;;;;10538681;28;20124;-64
2022/05/30 05:23:16;;;;;;;2.13;0.70;;;13.50;77.60;;;;;;10539270;28;20528;-65
2022/05/30 05:28:17;;;;;;;1.65;0.70;;;13.50;77.70;;;;;;10539501;28;20362;-63
2022/05/30 05:33:18;;;;;;;2.08;0.70;;;13.50;77.60;;;;;;10538943;28;20036;-65
2022/05/30 05:38:18;;;;;;;3.22;1.15;;;13.50;77.70;;;;;;10520295;28;20377;-58
2022/05/30 05:43:19;;;;;;;2.08;0.52;;;13.50;77.70;;;;;;10538354;28;20048;-58
2022/05/30 05:48:21;;;;;;;1.38;0.52;;;13.50;77.70;;;;;;10538388;28;20024;-64
2022/05/30 05:53:22;;;;;;;1.30;0.80;;;13.50;77.80;;;;;;10538306;28;20062;-64
2022/05/30 05:58:22;;;;;;;0.82;0.57;;;13.70;77.90;;;;;;10536775;28;20082;-64
2022/05/30 06:03:23;;;;;;;0.65;0.45;;;13.60;77.80;;;;;;10537494;28;20044;-59
2022/05/30 06:08:23;;;;;;;1.35;0.57;;;13.60;77.80;;;;;;10537698;28;20166;-59
2022/05/30 06:13:24;;;;;;;2.45;0.70;;;13.60;77.70;;;;;;10537217;28;20553;-59
2022/05/30 06:18:25;;;;;;;1.42;0.60;;;13.70;77.70;;;;;;10537259;28;20036;-62
2022/05/30 06:23:26;;;;;;;0.47;0.40;;;13.70;77.70;;;;;;10536971;28;20040;-64
2022/05/30 06:28:28;;;;;;;1.35;0.60;;;13.70;77.70;;;;;;10536519;28;20426;-62
2022/05/30 06:33:29;;;;;;;1.67;0.50;;;13.70;77.60;;;;;;10536841;28;20044;-57
2022/05/30 06:38:30;;;;;;;1.33;0.50;;;13.70;77.50;;;;;;10536299;28;20105;-62
2022/05/30 06:43:30;;;;;;;1.13;0.40;;;13.80;77.50;;;;;;10536271;28;20048;-58
2022/05/30 06:48:32;;;;;;;1.17;0.55;;;13.80;77.40;;;;;;10536232;28;20035;-61
2022/05/30 06:53:33;;;;;;;2.42;0.40;;;13.80;77.30;;;;;;10536111;28;20059;-62
2022/05/30 06:58:33;;;;;;;1.40;0.40;;;13.90;77.30;;;;;;10535808;28;20039;-64
2022/05/30 07:03:34;;;;;;;1.25;0.50;;;13.90;77.20;;;;;;10536247;28;20121;-63
2022/05/30 07:08:37;;;;;;;2.35;0.63;;;13.90;77.20;;;;;;10536183;28;20081;-62
2022/05/30 07:13:37;;;;;;;1.50;0.85;;;14.00;77.10;;;;;;10535716;28;20090;-63
2022/05/30 07:18:42;;;;;;;0.93;0.45;;;14.00;77.10;;;;;;10535642;28;20441;-60
2022/05/30 07:23:43;;;;;;;1.10;0.30;;;14.00;77.00;;;;;;10535398;28;20060;-60
2022/05/30 07:28:44;;;;;;;0.75;0.68;;;14.00;77.00;;;;;;10535590;28;20040;-61
2022/05/30 07:33:46;;;;;;;1.23;0.50;;;14.10;77.00;;;;;;10535341;28;20119;-60
2022/05/30 07:38:48;;;;;;;0.57;0.40;;;14.10;76.90;;;;;;10534577;28;20042;-61
2022/05/30 07:43:49;;;;;;;0.95;0.30;;;14.20;76.90;;;;;;10543144;28;20048;-60
2022/05/30 07:48:49;;;;;;;0.47;0.30;;;14.20;77.40;;;;;;10542871;28;20136;-61
2022/05/30 07:53:50;;;;;;;0.68;0.35;;;14.20;76.70;;;;;;10542768;28;20043;-58
2022/05/30 07:58:51;;;;;;;2.38;0.50;;;14.30;76.80;;;;;;10542801;28;20054;-65
2022/05/30 08:03:53;;;;;;;1.15;0.50;;;14.30;76.70;;;;;;10542196;28;20044;-63
2022/05/30 08:08:54;;;;;;;0.95;0.40;;;14.30;76.70;;;;;;10541465;28;20024;-58
2022/05/30 08:13:55;;;;;;;0.68;0.50;;;14.30;76.70;;;;;;10540266;28;20032;-66
2022/05/30 08:18:56;;;;;;;2.15;0.47;;;14.40;76.60;;;;;;10540194;28;20401;-58
2022/05/30 08:23:57;;;;;;;0.80;0.38;;;14.50;76.50;;;;;;10539934;28;20044;-63
2022/05/30 08:28:57;;;;;;;1.75;0.40;;;14.50;76.40;;;;;;10539679;28;20484;-67
2022/05/30 08:33:58;;;;;;;0.93;0.43;;;14.60;76.40;;;;;;10539660;28;20040;-58
2022/05/30 08:44:18;;;;;;;1.10;0.40;;;14.60;76.30;;;;;;10539224;28;20040;-58
2022/05/30 08:49:47;;;;;;;0.95;0.35;;;14.60;76.40;;;;;;10539149;28;20033;-59
2022/05/30 08:54:48;;;;;;;;;;;14.50;76.40;;;;;;10536973;28;20038;-59
2022/05/30 08:59:56;;;;;;;0.45;0.25;;;14.50;76.50;;;;;;10538806;28;20299;-66
2022/05/30 09:05:04;;;;;;;;;;;14.50;76.90;;;;;;10538899;28;20415;-66
2022/05/30 09:10:13;;;;;;;0.45;0.30;;;14.60;77.10;;;;;;10538385;28;19916;-64
2022/05/30 09:15:16;;;;;;;1.25;0.50;;;14.60;76.30;;;;;;10538085;28;20085;-64
2022/05/30 09:20:20;;;;;;;3.03;0.50;;;14.60;75.90;;;;;;10537907;28;20037;-70
2022/05/30 09:25:56;;;;;;;0.93;0.40;;;14.70;75.80;;;;;;10537466;28;20058;-68
2022/05/30 09:31:03;;;;;;;4.18;0.50;;;14.80;75.40;;;;;;10537497;28;20032;-62
2022/05/30 09:36:18;;;;;;;0.60;0.40;;;14.60;76.10;;;;;;10536760;28;20050;-63
2022/05/30 09:41:20;;;;;;;1.42;0.35;;;14.40;75.90;;;;;;10535352;28;20043;-59
2022/05/30 09:46:35;;;;;;;1.52;0.63;;;14.40;76.00;;;;;;10534815;28;20044;-60
2022/05/30 09:51:40;;;;;;;1.35;0.50;;;14.40;75.60;;;;;;10534544;28;20159;-67
2022/05/30 09:56:44;;;;;;;1.85;0.40;;;14.40;75.80;;;;;;10534410;28;20028;-68
2022/05/30 10:01:53;;;;;;;0.75;0.50;;;14.50;75.80;;;;;;10534195;28;20040;-60
2022/05/30 10:07:13;;;;;;;2.90;0.35;;;14.50;76.00;;;;;;10533081;28;20044;-68
2022/05/30 10:12:26;;;;;;;1.88;0.40;;;14.60;75.70;;;;;;10534277;28;20046;-66
2022/05/30 10:17:33;;;;;;;1.40;0.52;;;14.60;75.40;;;;;;10534048;28;20089;-66
2022/05/30 10:28:42;;;;;;;3.20;0.45;;;14.40;75.50;;;;;;10532426;28;20051;-65
2022/05/30 10:34:18;;;;;;;1.52;0.60;;;14.20;77.60;;;;;;10533468;28;20036;-61
2022/05/30 10:39:44;;;;;;;0.98;0.60;;;13.90;78.10;;;;;;10491734;28;1212222;-62
2022/05/30 10:44:51;;;;;;;2.55;0.60;;;13.90;78.30;;;;;;10534658;28;20128;-63
2022/05/30 10:50:00;;;;;;;3.70;0.50;;;13.70;78.80;;;;;;10534815;28;20036;-59
2022/05/30 10:55:08;;;;;;;1.67;0.40;;;13.70;79.10;;;;;;10534453;28;20028;-59
2022/05/30 11:00:19;;;;;;;0.98;0.32;;;13.90;78.80;;;;;;10534617;28;20047;-61
2022/05/30 11:05:27;;;;;;;2.20;0.40;;;14.20;78.40;;;;;;10534170;28;20048;-64
2022/05/30 11:10:56;;;;;;;0.30;0.30;;;14.30;77.80;;;;;;10534058;28;20516;-59
2022/05/30 11:16:00;;;;;;;;;;;14.10;78.30;;;;;;10539325;28;20378;-61
2022/05/30 11:21:30;;;;;;;1.00;0.55;;;14.20;78.30;;;;;;10542489;28;19933;-59
2022/05/30 11:26:51;;;;;;;1.30;0.50;;;14.30;77.70;;;;;;10542295;28;20477;-62
2022/05/30 11:32:01;;;;;;;1.35;0.38;;;14.60;77.40;;;;;;10530224;28;20063;-65
2022/05/30 11:37:29;;;;;;;1.60;0.60;;;14.70;76.90;;;;;;10541606;28;20048;-58
2022/05/30 11:43:17;;;;;;;0.40;0.32;;;14.70;76.40;;;;;;10541783;28;20056;-58
2022/05/30 11:48:39;;;;;;;0.60;0.40;;;14.90;76.40;;;;;;10536122;28;20081;-62
2022/05/30 11:53:55;;;;;;;1.77;0.40;;;15.00;77.00;;;;;;10541362;28;20107;-57
2022/05/30 11:59:30;;;;;;;1.33;0.50;;;15.10;76.10;;;;;;10540872;28;20048;-65
2022/05/30 12:05:00;;;;;;;0.77;0.43;;;15.20;75.60;;;;;;10540578;28;20142;-65
2022/05/30 12:10:13;;;;;;;1.60;0.63;;;15.30;75.20;;;;;;10520757;28;20036;-60
2022/05/30 12:15:36;;;;;;;0.85;0.30;;;15.40;75.20;;;;;;10540316;28;20056;-63
2022/05/30 12:26:16;;;;;;;0.35;0.17;;;15.80;73.80;;;;;;10539409;28;20131;-62
2022/05/30 12:31:34;;;;;;;4.13;0.30;;;15.70;73.50;;;;;;10539970;28;20024;-66
2022/05/30 12:36:39;;;;;;;0.43;0.17;;;15.30;73.50;;;;;;10539423;28;20070;-59
2022/05/30 12:41:57;;;;;;;0.25;0.20;;;15.40;73.90;;;;;;10539340;28;20501;-60
2022/05/30 12:47:13;;;;;;;0.50;0.30;;;15.50;73.00;;;;;;10538742;28;20416;-61
2022/05/30 12:52:19;;;;;;;0.20;0.20;;;15.40;73.10;;;;;;10538850;28;20462;-59
2022/05/30 12:57:44;;;;;;;0.77;0.25;;;15.30;73.40;;;;;;10538590;28;20142;-64
2022/05/30 13:02:57;;;;;;;0.40;0.17;;;15.40;73.20;;;;;;10538654;28;20134;-60
2022/05/30 13:07:58;;;;;;;0.30;0.20;;;15.50;73.30;;;;;;10538326;28;20493;-60
2022/05/30 13:13:14;;;;;;;0.57;0.30;;;15.60;73.00;;;;;;10538135;28;20047;-57
2022/05/30 13:18:20;;;;;;;0.35;0.20;;;15.40;72.60;;;;;;10537819;28;20024;-64
2022/05/30 13:23:35;;;;;;;0.47;0.20;;;15.20;73.10;;;;;;10537339;28;20097;-64
2022/05/30 13:28:41;;;;;;;0.60;0.25;;;15.10;72.40;;;;;;10537196;28;20515;-57
2022/05/30 13:33:50;;;;;;;0.80;0.30;;;15.10;73.00;;;;;;10536974;28;20025;-61
2022/05/30 13:38:53;;;;;;;2.20;0.50;;;15.10;73.00;;;;;;10535978;28;20075;-59
2022/05/30 13:43:56;;;;;;;1.30;0.40;;;15.20;72.70;;;;;;10536651;28;20048;-60
2022/05/30 13:48:57;;;;;;;1.77;0.57;;;15.20;72.90;;;;;;10536408;28;20392;-65
2022/05/30 13:53:58;;;;;;;1.63;0.40;;;15.30;73.20;;;;;;10536197;28;20040;-60
2022/05/30 13:59:01;;;;;;;0.63;0.50;;;15.80;72.70;;;;;;10536215;28;20444;-58
2022/05/30 14:04:20;;;;;;;0.57;0.40;;;15.90;72.50;;;;;;10535923;28;20047;-66
2022/05/30 14:09:23;;;;;;;0.98;0.68;;;16.30;72.60;;;;;;10536226;28;20116;-59
2022/05/30 14:14:38;;;;;;;1.83;0.40;;;16.40;71.90;;;;;;10535523;28;20512;-62
2022/05/30 14:19:41;;;;;;;0.68;0.40;;;16.10;72.10;;;;;;10535795;28;20119;-62
2022/05/30 14:24:59;;;;;;;0.75;0.47;;;16.10;72.80;;;;;;10535454;28;20123;-62
2022/05/30 14:30:03;;;;;;;0.80;0.40;;;16.10;72.80;;;;;;10535032;28;20036;-63
2022/05/30 14:35:13;;;;;;;0.95;0.55;;;16.20;73.00;;;;;;10535561;28;20036;-62
2022/05/30 14:40:29;;;;;;;0.40;0.30;;;16.20;72.90;;;;;;10532591;28;20056;-57
2022/05/30 14:45:39;;;;;;;0.30;0.20;;;16.20;73.20;;;;;;10534945;28;20042;-63
2022/05/30 14:50:45;;;;;;;0.50;0.30;;;16.10;73.40;;;;;;10534559;28;20090;-62
2022/05/30 14:55:50;;;;;;;1.25;0.57;;;16.10;73.60;;;;;;10534792;28;20032;-63
2022/05/30 15:00:52;;;;;;;0.28;0.20;;;16.00;73.70;;;;;;10534336;28;20043;-61
2022/05/30 15:05:53;;;;;;;0.40;0.30;;;16.00;73.90;;;;;;10534443;28;20044;-57
2022/05/30 15:10:53;;;;;;;1.42;0.60;;;16.00;74.00;;;;;;10534024;28;20056;-57
2022/05/30 15:15:54;;;;;;;0.70;0.60;;;15.80;74.00;;;;;;10534129;28;20512;-58
2022/05/30 15:20:55;;;;;;;5.78;0.60;;;15.40;74.70;;;;;;10533925;28;20056;-57
2022/05/30 15:25:56;;;;;;;2.50;0.80;;;15.30;75.20;;;;;;10533678;28;20063;-56
2022/05/30 15:30:56;;;;;;;2.85;0.60;;;15.30;75.10;;;;;;10533707;28;20035;-58
2022/05/30 15:35:57;;;;;;;1.60;0.50;;;15.30;74.80;;;;;;10533324;28;20051;-63
2022/05/30 15:40:58;;;;;;;2.28;0.50;;;15.30;74.90;;;;;;10532038;28;20047;-62
2022/05/30 15:45:59;;;;;;;1.17;0.60;;;15.30;74.40;;;;;;10533266;28;20048;-61
2022/05/30 15:51:02;;;;;;;1.98;0.57;;;15.30;74.40;;;;;;10533459;28;20046;-65
2022/05/30 16:01:24;;;;;;;1.35;0.60;;;15.20;75.30;;;;;;10537315;28;20489;-61
2022/05/30 16:06:27;;;;;;;1.50;0.65;;;15.20;74.90;;;;;;10540690;28;20143;-58
2022/05/30 16:11:28;;;;;;;6.18;0.90;;;15.20;75.10;;;;;;10540504;28;20086;-59
2022/05/30 16:16:29;;;;;;;1.40;0.70;;;15.10;75.20;;;;;;10540480;28;20040;-58
2022/05/30 16:21:30;;;;;;;1.13;0.57;;;15.10;75.30;;;;;;10540179;28;20040;-58
2022/05/30 16:26:39;;;;;;;1.90;0.70;;;15.10;75.50;;;;;;10539809;28;20093;-62
2022/05/30 16:31:40;;;;;;;2.67;0.70;;;15.10;75.60;;;;;;10540010;28;20016;-72
2022/05/30 16:36:44;;;;;;;3.50;0.70;;;15.10;75.50;;;;;;10539354;28;20064;-58
2022/05/30 16:41:44;;;;;;;2.25;0.60;;;15.10;75.20;;;;;;10539460;28;20465;-59
2022/05/30 16:46:45;;;;;;;0.95;0.57;;;15.20;75.10;;;;;;10538966;28;20158;-66
2022/05/30 16:51:47;;;;;;;2.88;0.50;;;15.20;74.90;;;;;;10539147;28;20047;-59
2022/05/30 16:56:50;;;;;;;1.67;0.90;;;15.20;75.00;;;;;;10538720;28;20078;-60
2022/05/30 17:01:51;;;;;;;1.45;0.57;;;15.30;75.00;;;;;;10538523;28;20499;-64
2022/05/30 17:06:53;;;;;;;2.58;0.60;;;15.20;75.20;;;;;;10538527;28;20131;-61
2022/05/30 17:11:55;;;;;;;2.63;0.85;;;15.20;75.10;;;;;;10537131;28;20031;-62
2022/05/30 17:16:56;;;;;;;1.70;0.80;;;14.90;76.00;;;;;;10538176;28;20044;-64
2022/05/30 17:21:57;;;;;;;1.10;0.68;;;14.60;77.10;;;;;;10537759;28;20128;-61
2022/05/30 17:32:24;;;;;;;1.15;0.85;;;14.40;78.40;;;;;;10537558;28;20573;-62
2022/05/30 17:37:25;;;;;;;2.15;0.50;;;14.40;78.80;;;;;;10537038;28;20518;-60
2022/05/30 17:42:26;;;;;;;2.47;0.60;;;14.60;78.40;;;;;;10537212;28;20036;-63
2022/05/30 17:47:37;;;;;;;1.55;0.55;;;14.70;78.20;;;;;;10536694;28;20047;-61
2022/05/30 17:52:44;;;;;;;3.08;0.55;;;14.90;78.10;;;;;;10536719;28;20085;-61
2022/05/30 17:57:45;;;;;;;1.58;0.50;;;15.00;77.80;;;;;;10536114;28;20035;-58
2022/05/30 18:02:45;;;;;;;0.40;0.40;;;15.10;77.60;;;;;;10536339;28;20584;-58
2022/05/30 18:08:18;;;;;;;0.57;0.40;;;15.20;77.50;;;;;;10536046;28;20067;-58
2022/05/30 18:13:37;;;;;;;1.00;0.50;;;15.20;77.50;;;;;;10534926;28;20392;-57
2022/05/30 18:24:21;;;;;;;1.35;0.60;;;15.30;77.50;;;;;;10536547;28;20044;-62
2022/05/30 18:29:25;;;;;;;2.65;0.60;;;15.30;77.60;;;;;;10536726;28;20035;-58
2022/05/30 18:34:53;;;;;;;1.05;0.50;;;15.30;77.50;;;;;;10536531;28;20032;-61
2022/05/30 18:40:10;;;;;;;1.23;0.68;;;15.40;77.70;;;;;;10536153;28;20090;-58
2022/05/30 18:45:16;;;;;;;1.52;0.60;;;15.30;77.80;;;;;;10536270;28;20063;-58
2022/05/30 18:50:17;;;;;;;1.67;0.40;;;15.30;77.70;;;;;;10535987;28;20450;-62
2022/05/30 18:55:19;;;;;;;1.75;0.80;;;15.30;77.80;;;;;;10536712;28;20119;-63
2022/05/30 19:00:23;;;;;;;1.23;0.60;;;15.30;77.90;;;;;;10536345;28;20123;-58
2022/05/30 19:05:24;;;;;;;1.10;0.68;;;15.30;78.00;;;;;;10535936;28;20063;-63
2022/05/30 19:10:25;;;;;;;2.25;0.50;;;15.30;78.10;;;;;;10535897;28;20036;-58
2022/05/30 19:20:48;;;;;;;2.17;1.25;;;15.30;78.30;;;;;;10534852;28;20460;-58
2022/05/30 19:25:49;;;;;;;0.77;0.40;;;15.20;78.30;;;;;;10535373;28;20048;-59
2022/05/30 19:30:50;;;;;;;1.38;0.40;;;15.20;78.40;;;;;;10535314;28;20036;-59
2022/05/30 19:35:53;;;;;;;1.85;0.52;;;15.20;78.50;;;;;;10539347;28;20055;-63
2022/05/30 19:40:58;;;;;;;2.95;0.80;;;15.20;78.60;;;;;;10543232;28;20462;-59
2022/05/30 19:46:01;;;;;;;1.65;0.60;;;15.10;78.60;;;;;;10543077;28;20043;-58
2022/05/30 19:51:06;;;;;;;1.23;0.70;;;15.10;78.70;;;;;;10543105;28;20469;-61
2022/05/30 19:56:08;;;;;;;2.45;0.63;;;15.10;78.80;;;;;;10543411;28;20377;-63
2022/05/30 20:01:08;;;;;;;1.92;0.50;;;15.10;78.90;;;;;;10542768;28;20051;-61
2022/05/30 20:06:10;;;;;;;1.98;0.65;;;15.00;78.90;;;;;;10542323;28;20076;-61
2022/05/30 20:11:11;;;;;;;4.10;0.60;;;15.00;79.00;;;;;;10542257;28;20036;-61
2022/05/30 20:16:12;;;;;;;1.45;0.50;;;15.00;79.10;;;;;;10542100;28;20463;-61
2022/05/30 20:21:13;;;;;;;4.78;1.00;;;15.00;79.20;;;;;;10542274;28;20123;-59
2022/05/30 20:26:14;;;;;;;0.98;0.68;;;15.00;79.20;;;;;;10541286;28;20044;-63
2022/05/30 20:31:15;;;;;;;2.90;0.85;;;15.00;79.30;;;;;;10541259;28;20032;-61
2022/05/30 20:36:17;;;;;;;3.17;0.60;;;15.00;79.30;;;;;;10540607;28;20055;-62
2022/05/30 20:46:37;;;;;;;1.75;0.77;;;15.00;79.40;;;;;;10540280;28;20056;-58
2022/05/30 20:51:38;;;;;;;1.77;0.82;;;15.00;79.50;;;;;;10540595;28;20059;-62
2022/05/30 20:56:38;;;;;;;2.17;0.90;;;15.00;79.60;;;;;;10540224;28;20032;-62
2022/05/30 21:01:39;;;;;;;2.65;0.60;;;15.00;79.60;;;;;;10540099;28;20132;-63
2022/05/30 21:06:42;;;;;;;1.48;0.65;;;15.00;79.70;;;;;;10540212;28;20125;-60
2022/05/30 21:11:42;;;;;;;1.08;0.60;;;14.90;80.30;;;;;;10539818;28;20036;-62
2022/05/30 21:16:50;;;;;;;2.15;0.88;;;14.90;79.80;;;;;;10539405;28;20393;-63
2022/05/30 21:21:51;;;;;;;2.63;0.70;;;14.90;79.90;;;;;;10539436;28;20522;-62
2022/05/30 21:26:52;;;;;;;1.95;0.60;;;14.90;79.90;;;;;;10539495;28;20538;-57
2022/05/30 21:32:01;;;;;;;0.85;0.60;;;14.90;79.90;;;;;;10539014;28;20094;-58
2022/05/30 21:37:05;;;;;;;1.77;0.70;;;14.90;79.90;;;;;;10538415;28;20036;-61
2022/05/30 21:42:07;;;;;;;1.55;0.70;;;14.90;79.90;;;;;;10538818;28;20032;-57
2022/05/30 21:47:08;;;;;;;2.17;0.55;;;14.90;79.90;;;;;;10538850;28;20048;-61
2022/05/30 21:52:08;;;;;;;0.75;0.55;;;14.90;79.90;;;;;;10538275;28;20032;-63
2022/05/30 22:02:28;;;;;;;1.95;0.88;;;14.80;79.90;;;;;;10537679;28;20043;-62
2022/05/30 22:07:29;;;;;;;0.77;0.50;;;14.80;79.90;;;;;;10537792;28;20038;-59
2022/05/30 22:12:30;;;;;;;1.27;0.70;;;14.80;79.90;;;;;;10537525;28;20078;-56
2022/05/30 22:17:31;;;;;;;0.65;0.65;;;14.70;79.80;;;;;;10537243;28;20094;-57
2022/05/30 22:22:31;;;;;;;2.13;0.70;;;14.70;79.90;;;;;;10537095;28;20040;-61
2022/05/30 22:27:32;;;;;;;0.73;0.50;;;14.70;79.90;;;;;;10537432;28;20510;-57
2022/05/30 22:32:33;;;;;;;0.90;0.50;;;14.70;79.90;;;;;;10536841;28;20477;-63
2022/05/30 22:37:35;;;;;;;0.98;0.55;;;14.70;79.90;;;;;;10536665;28;20066;-60
2022/05/30 22:42:36;;;;;;;0.82;0.60;;;14.70;80.00;;;;;;10536855;28;20036;-59
2022/05/30 22:47:40;;;;;;;1.65;0.63;;;14.60;79.90;;;;;;10536307;28;20499;-58
2022/05/30 22:52:41;;;;;;;1.42;0.60;;;14.60;80.00;;;;;;10536472;28;20528;-63
2022/05/30 22:57:42;;;;;;;0.40;0.40;;;14.60;80.00;;;;;;10536172;28;20043;-63
2022/05/30 23:02:43;;;;;;;0.57;0.40;;;14.60;80.00;;;;;;10536204;28;20400;-57
2022/05/30 23:07:44;;;;;;;0.95;0.50;;;14.60;80.00;;;;;;10536527;28;20039;-62
2022/05/30 23:12:48;;;;;;;1.65;0.50;;;14.60;80.00;;;;;;10544642;28;20376;-62
2022/05/30 23:17:51;;;;;;;2.20;0.60;;;14.50;80.00;;;;;;10544732;28;20032;-63
2022/05/30 23:22:53;;;;;;;0.60;0.40;;;14.50;80.00;;;;;;10544381;28;20036;-57
2022/05/30 23:28:00;;;;;;;0.82;0.60;;;14.50;80.00;;;;;;10544257;28;20398;-57
2022/05/30 23:33:01;;;;;;;0.80;0.50;;;14.50;80.00;;;;;;10543929;28;20047;-58
2022/05/30 23:38:03;;;;;;;0.70;0.50;;;14.50;80.00;;;;;;10543760;28;20051;-57
2022/05/30 23:48:23;;;;;;;1.95;0.60;;;14.50;80.00;;;;;;10543328;28;20043;-57
2022/05/30 23:53:24;;;;;;;1.40;0.60;;;14.40;79.90;;;;;;10543296;28;20069;-57
2022/05/30 23:58:25;;;;;;;0.50;0.50;;;14.40;80.00;;;;;;10543006;28;20064;-61
